Halstead, Kansas
Current Conditions -  °F | °C
As of 2:15 PM on Wednesday 26 Nov 2014 (Local Time) from KEWK Reporting Station
Scattered Clouds Scattered Clouds  
Wind Chill: 33°   Ceiling: Unl
Heat Index: 43°   Visibility: 10mi
Dew Point: 21°   Wind: 26mph
Humidity: 42%   Direction: 320°NW
Pressure: 30.19"   Gusts: 35mph
Location:  38°N, 97.51°W
Report Text: KEWK 262015Z AUTO 32023G30KT 10SM SCT042 06/M06 A3019 RMK AO1
Loading
Personal Weather Stations






























Interactive Weather Map New forecast layout! Learn more

10-Day Weather Forecast

Advertisements
Track Severe Weather on mobile